Time;durP1;ratioP1;P1;durP2;ratioP2;P2;SDS_P1;SDS_P2;PMS_P1;PMS_P2;Temp;Humidity;BMP_temperature;BMP_pressure;BME280_temperature;BME280_humidity;BME280_pressure;Samples;Min_cycle;Max_cycle;Signal;HPM_P1;HPM_P2
2021/10/07 00:01:55;;;;;;;6.30;3.03;;;15.10;75.50;;;;;;5073828;28;20032;-74
2021/10/07 00:04:21;;;;;;;6.90;2.50;;;15.10;76.10;;;;;;5074176;28;20485;-74
2021/10/07 00:06:47;;;;;;;5.63;2.85;;;15.10;76.20;;;;;;5074416;28;20040;-74
2021/10/07 00:09:13;;;;;;;6.30;2.85;;;15.20;76.90;;;;;;5074379;28;20115;-74
2021/10/07 00:11:38;;;;;;;5.85;2.88;;;15.30;76.40;;;;;;5074702;28;20032;-74
2021/10/07 00:14:06;;;;;;;7.10;2.70;;;15.30;75.90;;;;;;5074223;28;20039;-74
2021/10/07 00:16:32;;;;;;;5.45;2.40;;;15.10;75.70;;;;;;5059968;28;20016;-74
2021/10/07 00:18:58;;;;;;;6.65;2.10;;;15.10;76.10;;;;;;5074002;28;20489;-74
2021/10/07 00:21:24;;;;;;;5.40;2.20;;;15.00;76.60;;;;;;5074294;28;20025;-74
2021/10/07 00:26:31;;;;;;;4.47;1.98;;;15.00;76.60;;;;;;5073962;28;20497;-74
2021/10/07 00:29:03;;;;;;;5.70;2.10;;;14.90;76.70;;;;;;5072691;28;20029;-74
2021/10/07 00:31:33;;;;;;;4.30;2.00;;;15.00;77.60;;;;;;5073473;28;20020;-75
2021/10/07 00:36:39;;;;;;;5.03;2.13;;;15.30;77.40;;;;;;5073899;28;20024;-75
2021/10/07 00:39:05;;;;;;;4.97;2.03;;;15.30;76.60;;;;;;5070235;28;20061;-74
2021/10/07 00:41:32;;;;;;;4.30;2.00;;;15.30;76.60;;;;;;5073899;28;20394;-75
2021/10/07 00:44:08;;;;;;;4.15;1.98;;;15.30;76.40;;;;;;5057909;28;20056;-74
2021/10/07 00:46:58;;;;;;;2.78;1.90;;;15.30;76.40;;;;;;5073376;28;20032;-75
2021/10/07 00:49:24;;;;;;;4.32;1.90;;;15.30;76.20;;;;;;5062849;28;20480;-74
2021/10/07 00:51:50;;;;;;;4.38;1.80;;;15.30;75.90;;;;;;5073666;28;20107;-73
2021/10/07 00:54:23;;;;;;;5.80;1.83;;;15.20;76.30;;;;;;5057962;28;20035;-75
2021/10/07 00:56:49;;;;;;;3.75;1.70;;;15.20;76.60;;;;;;5073903;28;20556;-74
2021/10/07 00:59:15;;;;;;;3.60;1.75;;;15.20;76.60;;;;;;5073178;28;20386;-74
2021/10/07 01:01:41;;;;;;;3.65;1.75;;;15.10;75.80;;;;;;5073425;28;20024;-74
2021/10/07 01:04:07;;;;;;;4.93;1.63;;;14.90;76.30;;;;;;5073414;28;20093;-75
2021/10/07 01:06:33;;;;;;;3.40;1.50;;;15.00;77.40;;;;;;5073304;28;20029;-74
2021/10/07 01:09:00;;;;;;;2.97;1.48;;;15.00;77.00;;;;;;5073694;28;20046;-73
2021/10/07 01:11:26;;;;;;;4.82;1.50;;;15.00;77.20;;;;;;5073315;28;20485;-74
2021/10/07 01:13:52;;;;;;;5.00;1.77;;;15.10;77.80;;;;;;5072781;28;20036;-74
2021/10/07 01:16:17;;;;;;;4.68;1.70;;;15.10;76.70;;;;;;5072867;28;20020;-73
2021/10/07 01:18:45;;;;;;;4.95;1.60;;;15.10;77.00;;;;;;5073372;28;20492;-73
2021/10/07 01:21:13;;;;;;;3.63;1.60;;;15.10;77.20;;;;;;5058187;28;20408;-73
2021/10/07 01:23:40;;;;;;;5.18;1.95;;;15.20;77.20;;;;;;5072544;28;20033;-73
2021/10/07 01:26:07;;;;;;;4.70;1.60;;;15.20;77.00;;;;;;5073589;28;20016;-75
2021/10/07 01:28:33;;;;;;;4.32;1.50;;;15.20;76.80;;;;;;5073898;28;20432;-74
2021/10/07 01:30:59;;;;;;;3.45;1.40;;;15.30;77.20;;;;;;5056494;28;20016;-74
2021/10/07 01:33:24;;;;;;;5.43;1.75;;;15.20;76.40;;;;;;5077285;28;20094;-74
2021/10/07 01:35:50;;;;;;;6.10;1.70;;;15.10;77.30;;;;;;5077566;28;20017;-74
2021/10/07 01:38:15;;;;;;;4.38;1.55;;;15.10;76.70;;;;;;5076206;28;20049;-74
2021/10/07 01:40:41;;;;;;;4.25;1.83;;;15.10;76.90;;;;;;5077891;28;20041;-74
2021/10/07 01:43:07;;;;;;;3.88;1.30;;;15.00;77.10;;;;;;5077864;28;20028;-74
2021/10/07 01:45:32;;;;;;;4.05;1.70;;;15.10;77.80;;;;;;5076750;28;20491;-75
2021/10/07 01:47:58;;;;;;;3.53;1.10;;;15.10;77.80;;;;;;5076843;28;20032;-74
2021/10/07 01:50:23;;;;;;;4.97;1.27;;;15.10;77.60;;;;;;5076648;28;20489;-75
2021/10/07 01:52:49;;;;;;;3.85;1.23;;;15.10;77.70;;;;;;5057859;28;20042;-74
2021/10/07 01:55:15;;;;;;;4.78;1.30;;;15.20;78.30;;;;;;5073382;28;20114;-75
2021/10/07 01:57:40;;;;;;;2.80;1.08;;;15.30;77.50;;;;;;5082962;28;20020;-75
2021/10/07 02:00:09;;;;;;;2.75;1.20;;;15.30;77.90;;;;;;5078131;28;20082;-74
2021/10/07 02:02:35;;;;;;;4.18;1.25;;;15.30;77.10;;;;;;5075013;28;20036;-74
2021/10/07 02:05:00;;;;;;;5.82;1.50;;;15.10;76.70;;;;;;5074768;28;20025;-72
2021/10/07 02:07:26;;;;;;;2.15;1.02;;;15.00;77.20;;;;;;5071795;28;20115;-74
2021/10/07 02:09:52;;;;;;;6.93;1.58;;;15.10;78.00;;;;;;5054631;28;20036;-76
2021/10/07 02:12:17;;;;;;;4.70;1.30;;;15.00;77.30;;;;;;5071734;28;20473;-75
2021/10/07 02:14:43;;;;;;;4.28;1.17;;;15.00;77.50;;;;;;5070320;28;20561;-75
2021/10/07 02:17:09;;;;;;;3.97;1.67;;;15.00;78.10;;;;;;5071521;28;20036;-73
2021/10/07 02:19:34;;;;;;;5.97;1.50;;;15.00;78.10;;;;;;5071333;28;20194;-73
2021/10/07 02:22:00;;;;;;;3.38;1.50;;;15.00;78.20;;;;;;5071579;28;20056;-74
2021/10/07 02:24:26;;;;;;;2.88;1.20;;;15.00;78.30;;;;;;5071340;28;20035;-74
2021/10/07 02:26:51;;;;;;;3.92;1.40;;;15.10;78.50;;;;;;5071733;28;20071;-74
2021/10/07 02:29:17;;;;;;;3.65;1.20;;;15.00;77.90;;;;;;5071352;28;20028;-73
2021/10/07 02:31:43;;;;;;;3.90;1.23;;;15.00;78.40;;;;;;5071413;28;20464;-74
2021/10/07 02:34:08;;;;;;;3.47;1.40;;;15.00;78.20;;;;;;5071740;28;20532;-74
2021/10/07 02:36:34;;;;;;;4.45;1.20;;;15.00;78.60;;;;;;5071029;28;20021;-74
2021/10/07 02:38:59;;;;;;;2.85;1.20;;;15.00;78.60;;;;;;5071460;28;20574;-74
2021/10/07 02:41:26;;;;;;;4.18;2.20;;;15.00;78.60;;;;;;5070393;28;20032;-74
2021/10/07 02:43:52;;;;;;;5.10;1.60;;;15.00;79.50;;;;;;5070689;28;20033;-74
2021/10/07 02:46:18;;;;;;;6.82;1.52;;;15.00;78.60;;;;;;5070730;28;20090;-74
2021/10/07 02:48:44;;;;;;;4.10;1.40;;;15.00;78.80;;;;;;5071132;28;20044;-74
2021/10/07 02:51:10;;;;;;;5.60;1.48;;;14.90;78.80;;;;;;5068943;28;20020;-74
2021/10/07 02:53:37;;;;;;;3.13;1.42;;;14.90;79.10;;;;;;5067896;28;20036;-75
2021/10/07 02:56:04;;;;;;;3.53;1.30;;;14.90;79.50;;;;;;5069081;28;20071;-75
2021/10/07 02:58:30;;;;;;;5.65;1.75;;;14.90;79.20;;;;;;5070212;28;20020;-75
2021/10/07 03:00:56;;;;;;;5.25;1.30;;;14.90;79.00;;;;;;5069578;28;20443;-76
2021/10/07 03:03:21;;;;;;;5.45;1.50;;;14.90;79.30;;;;;;5053170;28;20036;-74
2021/10/07 03:05:47;;;;;;;5.68;1.48;;;14.90;79.90;;;;;;5056849;28;20031;-75
2021/10/07 03:08:13;;;;;;;5.80;1.33;;;15.00;80.00;;;;;;5070050;28;20448;-74
2021/10/07 03:10:38;;;;;;;5.13;1.50;;;15.00;79.70;;;;;;5069854;28;20056;-75
2021/10/07 03:13:04;;;;;;;3.83;1.20;;;15.00;79.40;;;;;;5069458;28;20042;-74
2021/10/07 03:15:30;;;;;;;3.25;1.20;;;15.00;79.80;;;;;;5070101;28;20397;-75
2021/10/07 03:17:55;;;;;;;4.88;1.30;;;15.00;79.90;;;;;;5057134;28;20451;-75
2021/10/07 03:20:21;;;;;;;5.18;1.55;;;15.10;80.10;;;;;;5070026;28;20035;-74
2021/10/07 03:22:47;;;;;;;4.00;1.20;;;15.10;79.50;;;;;;5069497;28;20024;-75
2021/10/07 03:25:12;;;;;;;3.72;1.20;;;15.10;79.40;;;;;;5069940;28;20028;-74
2021/10/07 03:27:38;;;;;;;3.92;1.52;;;15.00;79.60;;;;;;5070028;28;20040;-75
2021/10/07 03:30:06;;;;;;;3.72;1.35;;;15.10;80.80;;;;;;5070340;28;20029;-74
2021/10/07 03:32:31;;;;;;;3.72;1.50;;;15.00;79.50;;;;;;5056108;28;20032;-75
2021/10/07 03:34:57;;;;;;;2.80;1.35;;;15.00;80.40;;;;;;5056073;28;20028;-74
2021/10/07 03:37:23;;;;;;;3.80;1.20;;;14.90;80.20;;;;;;5070111;28;20507;-75
2021/10/07 03:39:49;;;;;;;5.38;1.40;;;15.00;80.00;;;;;;5069435;28;20106;-75
2021/10/07 03:42:15;;;;;;;3.95;1.80;;;15.00;80.10;;;;;;5054261;28;20085;-75
2021/10/07 03:44:41;;;;;;;4.57;1.65;;;15.00;80.00;;;;;;5069840;28;20021;-75
2021/10/07 03:47:07;;;;;;;5.63;1.70;;;15.00;80.00;;;;;;5069760;28;20033;-75
2021/10/07 03:49:33;;;;;;;2.92;1.50;;;14.90;80.50;;;;;;5069879;28;20032;-75
2021/10/07 03:51:59;;;;;;;6.03;1.63;;;15.00;80.40;;;;;;5070306;28;20482;-75
2021/10/07 03:54:25;;;;;;;2.63;1.40;;;15.00;80.40;;;;;;5069838;28;20023;-74
2021/10/07 03:56:50;;;;;;;4.13;1.67;;;15.10;80.50;;;;;;5070858;28;20020;-75
2021/10/07 03:59:16;;;;;;;5.13;1.60;;;15.10;80.50;;;;;;5070731;28;20493;-74
2021/10/07 04:01:42;;;;;;;4.72;1.58;;;15.20;80.50;;;;;;5057575;28;20032;-75
2021/10/07 04:04:07;;;;;;;4.78;1.40;;;15.20;80.70;;;;;;5074716;28;20100;-75
2021/10/07 04:06:33;;;;;;;3.75;1.42;;;15.30;80.20;;;;;;5074554;28;20505;-75
2021/10/07 04:08:59;;;;;;;4.43;1.58;;;15.20;80.00;;;;;;5074189;28;20024;-75
2021/10/07 04:11:24;;;;;;;3.22;1.50;;;15.20;80.20;;;;;;5074202;28;20032;-75
2021/10/07 04:13:50;;;;;;;5.53;1.60;;;15.20;80.10;;;;;;5073929;28;20182;-75
2021/10/07 04:16:16;;;;;;;3.90;1.40;;;15.20;80.30;;;;;;5073770;28;20401;-75
2021/10/07 04:18:43;;;;;;;4.85;1.58;;;15.20;80.40;;;;;;5073531;28;20031;-75
2021/10/07 04:21:10;;;;;;;4.70;1.92;;;15.10;80.50;;;;;;5073686;28;20024;-75
2021/10/07 04:23:35;;;;;;;3.42;1.20;;;15.10;80.50;;;;;;5072618;28;20150;-75
2021/10/07 04:26:01;;;;;;;4.22;1.52;;;15.10;80.50;;;;;;5073371;28;20147;-75
2021/10/07 04:28:26;;;;;;;5.93;1.52;;;15.10;80.60;;;;;;5073343;28;20079;-75
2021/10/07 04:30:52;;;;;;;4.28;1.35;;;15.10;81.80;;;;;;5073529;28;20025;-75
2021/10/07 04:33:18;;;;;;;6.78;1.67;;;15.10;80.60;;;;;;5073507;28;20483;-75
2021/10/07 04:35:43;;;;;;;4.38;1.60;;;15.10;81.40;;;;;;5071790;28;20024;-75
2021/10/07 04:38:09;;;;;;;3.53;1.30;;;15.20;81.10;;;;;;5072786;28;20548;-75
2021/10/07 04:40:36;;;;;;;4.80;1.80;;;15.10;80.80;;;;;;5073383;28;20036;-75
2021/10/07 04:43:03;;;;;;;4.25;1.50;;;15.20;81.00;;;;;;5073106;28;20159;-75
2021/10/07 04:45:29;;;;;;;5.45;1.60;;;15.20;81.30;;;;;;5073552;28;20534;-75
2021/10/07 04:47:55;;;;;;;4.53;1.40;;;15.30;80.50;;;;;;5073604;28;20028;-75
2021/10/07 04:50:20;;;;;;;4.65;1.40;;;15.30;81.00;;;;;;5072949;28;20412;-75
2021/10/07 04:52:46;;;;;;;6.75;1.55;;;15.30;81.10;;;;;;5072974;28;20028;-75
2021/10/07 04:55:12;;;;;;;5.03;1.40;;;15.40;81.00;;;;;;5073207;28;20025;-75
2021/10/07 04:57:38;;;;;;;4.97;1.58;;;15.40;80.60;;;;;;5072861;28;20108;-75
2021/10/07 05:00:06;;;;;;;3.13;1.30;;;15.40;80.80;;;;;;5073213;28;20537;-75
2021/10/07 05:02:34;;;;;;;3.55;1.58;;;15.50;80.90;;;;;;5072612;28;20386;-75
2021/10/07 05:05:00;;;;;;;5.25;1.50;;;15.40;80.20;;;;;;5072702;28;20035;-75
2021/10/07 05:07:25;;;;;;;3.25;1.25;;;15.50;80.70;;;;;;5072033;28;20044;-75
2021/10/07 05:09:51;;;;;;;5.78;1.58;;;15.50;80.80;;;;;;5073047;28;20031;-76
2021/10/07 05:12:16;;;;;;;4.47;1.38;;;15.50;80.50;;;;;;5072627;28;20078;-75
2021/10/07 05:14:42;;;;;;;4.80;1.30;;;15.50;80.50;;;;;;5058741;28;20031;-75
2021/10/07 05:17:08;;;;;;;4.80;1.65;;;15.50;80.40;;;;;;5058869;28;20082;-76
2021/10/07 05:19:33;;;;;;;6.72;1.67;;;15.50;80.30;;;;;;5059214;28;20104;-75
2021/10/07 05:21:59;;;;;;;3.80;1.52;;;15.50;80.00;;;;;;5072087;28;20038;-75
2021/10/07 05:24:24;;;;;;;3.72;1.23;;;15.40;80.20;;;;;;5055266;28;20024;-75
2021/10/07 05:26:50;;;;;;;3.78;1.30;;;15.40;80.80;;;;;;5073172;28;20539;-74
2021/10/07 05:29:16;;;;;;;5.80;1.38;;;15.40;80.40;;;;;;5072210;28;20063;-75
2021/10/07 05:31:41;;;;;;;4.47;1.42;;;15.30;80.50;;;;;;5072033;28;20123;-75
2021/10/07 05:34:07;;;;;;;4.60;1.40;;;15.30;80.60;;;;;;5072169;28;20031;-73
2021/10/07 05:36:33;;;;;;;3.00;1.10;;;15.20;80.40;;;;;;5071662;28;20017;-75
2021/10/07 05:38:58;;;;;;;3.55;1.33;;;15.20;80.80;;;;;;5058371;28;20045;-74
2021/10/07 05:41:24;;;;;;;5.47;1.40;;;15.10;81.20;;;;;;5071339;28;20058;-75
2021/10/07 05:43:50;;;;;;;5.78;1.50;;;15.20;81.50;;;;;;5071895;28;20024;-73
2021/10/07 05:46:15;;;;;;;7.95;1.83;;;15.20;81.30;;;;;;5056108;28;20417;-75
2021/10/07 05:48:41;;;;;;;4.07;1.42;;;15.20;81.60;;;;;;5071998;28;20567;-75
2021/10/07 05:51:07;;;;;;;3.42;1.40;;;15.20;81.60;;;;;;5072190;28;20056;-75
2021/10/07 05:53:32;;;;;;;3.05;1.20;;;15.20;81.70;;;;;;5058235;28;20025;-78
2021/10/07 05:55:58;;;;;;;4.53;1.23;;;15.30;82.00;;;;;;5071093;28;20496;-74
2021/10/07 05:58:23;;;;;;;3.65;1.58;;;15.30;81.70;;;;;;5071044;28;20397;-75
2021/10/07 06:00:49;;;;;;;4.53;1.48;;;15.30;81.50;;;;;;5069908;28;20108;-75
2021/10/07 06:03:15;;;;;;;3.40;1.40;;;15.30;81.30;;;;;;5071213;28;20103;-75
2021/10/07 06:05:40;;;;;;;4.20;1.45;;;15.30;81.30;;;;;;5061281;28;20111;-74
2021/10/07 06:08:07;;;;;;;6.68;1.60;;;15.20;81.50;;;;;;5070514;28;20504;-75
2021/10/07 06:10:33;;;;;;;4.03;1.50;;;15.30;82.00;;;;;;5071725;28;20074;-74
2021/10/07 06:12:59;;;;;;;4.20;1.52;;;15.30;81.80;;;;;;5073698;28;20488;-73
2021/10/07 06:15:26;;;;;;;4.45;1.40;;;15.30;81.50;;;;;;5071225;28;20074;-73
2021/10/07 06:17:53;;;;;;;3.00;1.40;;;15.30;81.60;;;;;;5063490;28;20020;-74
2021/10/07 06:22:48;;;;;;;5.32;1.50;;;15.30;82.20;;;;;;5068639;28;20020;-73
2021/10/07 06:25:15;;;;;;;6.35;1.55;;;15.30;82.40;;;;;;5072860;28;20119;-75
2021/10/07 06:27:40;;;;;;;4.47;1.60;;;15.40;82.80;;;;;;5070714;28;20033;-76
2021/10/07 06:30:06;;;;;;;5.75;1.67;;;15.40;82.00;;;;;;5069470;28;20024;-72
2021/10/07 06:32:32;;;;;;;5.22;1.40;;;15.40;82.60;;;;;;5070141;28;20043;-72
2021/10/07 06:34:58;;;;;;;4.82;1.33;;;15.50;82.50;;;;;;5070714;28;20111;-72
2021/10/07 06:37:23;;;;;;;5.25;1.20;;;15.40;82.20;;;;;;5070657;28;20111;-73
2021/10/07 06:39:49;;;;;;;5.10;1.17;;;15.50;82.10;;;;;;5071394;28;20523;-72
2021/10/07 06:42:14;;;;;;;5.60;1.25;;;15.50;82.40;;;;;;5071058;28;20492;-71
2021/10/07 06:44:40;;;;;;;7.00;1.63;;;15.50;82.80;;;;;;5071327;28;20074;-72
2021/10/07 06:47:06;;;;;;;5.70;1.10;;;15.50;82.70;;;;;;5070235;28;20531;-73
2021/10/07 06:49:31;;;;;;;7.00;1.23;;;15.60;83.00;;;;;;5070870;28;20028;-73
2021/10/07 06:51:57;;;;;;;9.13;1.23;;;15.60;82.90;;;;;;5070625;28;20052;-72
2021/10/07 06:54:22;;;;;;;4.53;1.50;;;15.60;83.10;;;;;;5071080;28;20021;-73
2021/10/07 06:56:48;;;;;;;6.80;1.48;;;15.60;82.70;;;;;;5071463;28;20064;-73
2021/10/07 06:59:14;;;;;;;5.85;1.60;;;15.60;83.10;;;;;;5071319;28;20040;-73
2021/10/07 07:01:39;;;;;;;4.55;1.30;;;15.60;83.30;;;;;;5070584;28;20028;-72
2021/10/07 07:04:05;;;;;;;6.32;1.27;;;15.60;83.20;;;;;;5070731;28;20028;-73
2021/10/07 07:06:31;;;;;;;3.72;1.42;;;15.60;83.60;;;;;;5070724;28;20703;-72
2021/10/07 07:08:56;;;;;;;7.93;1.55;;;15.70;83.50;;;;;;5070878;28;20103;-72
2021/10/07 07:11:27;;;;;;;6.55;1.50;;;15.70;83.40;;;;;;5071833;28;20043;-73
2021/10/07 07:13:54;;;;;;;8.82;1.45;;;15.60;83.00;;;;;;5072841;28;20082;-73
2021/10/07 07:16:20;;;;;;;4.78;1.20;;;15.60;83.30;;;;;;5070919;28;20123;-73
2021/10/07 07:18:45;;;;;;;7.00;1.60;;;15.60;83.30;;;;;;5071351;28;20029;-73
2021/10/07 07:21:11;;;;;;;6.55;1.55;;;15.60;84.00;;;;;;5071016;28;20086;-73
2021/10/07 07:23:37;;;;;;;5.80;2.00;;;15.60;84.20;;;;;;5074777;28;20028;-73
2021/10/07 07:26:03;;;;;;;6.00;1.23;;;15.60;84.10;;;;;;5071386;28;20029;-73
2021/10/07 07:28:28;;;;;;;3.15;1.50;;;15.50;84.10;;;;;;5071514;28;20025;-73
2021/10/07 07:30:54;;;;;;;4.47;1.50;;;15.30;84.00;;;;;;5071155;28;21838;-71
2021/10/07 07:33:24;;;;;;;6.78;1.55;;;15.30;85.00;;;;;;5071582;28;20025;-72
2021/10/07 07:35:49;;;;;;;4.32;1.05;;;15.40;85.00;;;;;;5072326;28;20029;-72
2021/10/07 07:38:15;;;;;;;6.97;1.42;;;15.30;85.00;;;;;;5074207;28;20400;-71
2021/10/07 07:40:41;;;;;;;5.43;1.88;;;15.30;85.00;;;;;;5076222;28;20082;-72
2021/10/07 07:43:06;;;;;;;6.78;1.60;;;15.30;85.80;;;;;;5075442;28;20112;-72
2021/10/07 07:45:32;;;;;;;7.50;1.50;;;15.50;85.80;;;;;;5074777;28;20119;-72
2021/10/07 07:47:58;;;;;;;11.35;1.75;;;15.60;85.20;;;;;;5076941;28;20115;-72
2021/10/07 07:50:25;;;;;;;5.05;1.48;;;15.50;85.10;;;;;;5075289;28;20071;-72
2021/10/07 07:52:52;;;;;;;7.30;1.60;;;15.50;84.90;;;;;;5074712;28;20458;-72
2021/10/07 07:55:19;;;;;;;10.18;2.28;;;15.50;85.00;;;;;;5074719;28;20426;-72
2021/10/07 07:57:44;;;;;;;6.35;1.60;;;15.50;85.70;;;;;;5074648;28;20032;-72
2021/10/07 08:00:10;;;;;;;6.45;1.73;;;15.70;86.70;;;;;;5074510;28;20021;-72
2021/10/07 08:02:36;;;;;;;8.95;2.08;;;16.00;86.70;;;;;;5073967;28;20477;-72
2021/10/07 08:05:03;;;;;;;5.85;1.58;;;16.40;85.70;;;;;;5074623;28;20157;-72
2021/10/07 08:07:29;;;;;;;7.03;1.80;;;16.50;84.20;;;;;;5074374;28;20058;-72
2021/10/07 08:09:54;;;;;;;6.40;1.52;;;16.60;83.90;;;;;;5074719;28;20801;-72
2021/10/07 08:12:20;;;;;;;7.32;1.70;;;16.70;83.90;;;;;;5074457;28;20025;-72
2021/10/07 08:14:47;;;;;;;5.55;1.67;;;16.80;82.70;;;;;;5074534;28;20566;-72
2021/10/07 08:17:14;;;;;;;7.60;1.98;;;16.60;82.10;;;;;;5074549;28;20029;-72
2021/10/07 08:19:41;;;;;;;6.25;1.85;;;16.40;82.90;;;;;;5074415;28;20094;-72
2021/10/07 08:22:06;;;;;;;4.78;1.75;;;16.40;83.50;;;;;;5074309;28;20037;-72
2021/10/07 08:24:33;;;;;;;7.18;2.10;;;16.40;84.40;;;;;;5058254;28;20021;-72
2021/10/07 08:27:00;;;;;;;6.15;2.10;;;16.50;84.40;;;;;;5074689;28;20041;-71
2021/10/07 08:29:25;;;;;;;6.55;1.83;;;16.60;84.00;;;;;;5073602;28;20031;-71
2021/10/07 08:31:51;;;;;;;6.10;2.47;;;16.50;83.60;;;;;;5073997;28;20103;-72
2021/10/07 08:34:17;;;;;;;8.25;2.22;;;16.50;83.70;;;;;;5073975;28;20027;-71
2021/10/07 08:36:43;;;;;;;5.65;2.20;;;16.50;83.90;;;;;;5056115;28;20040;-71
2021/10/07 08:39:12;;;;;;;7.78;2.60;;;16.50;83.90;;;;;;5074025;28;20045;-71
2021/10/07 08:41:38;;;;;;;8.38;2.90;;;16.40;84.00;;;;;;5073374;28;20201;-72
2021/10/07 08:44:04;;;;;;;6.82;2.78;;;16.40;84.60;;;;;;5073554;28;20029;-74
2021/10/07 08:46:31;;;;;;;6.80;2.53;;;16.40;84.60;;;;;;5058926;28;20439;-72
2021/10/07 08:48:59;;;;;;;7.00;2.72;;;16.30;84.20;;;;;;5072839;28;20393;-72
2021/10/07 08:51:25;;;;;;;9.73;3.17;;;16.20;84.50;;;;;;5073701;28;20470;-72
2021/10/07 08:53:51;;;;;;;7.55;2.63;;;16.10;84.90;;;;;;5074034;28;20455;-72
2021/10/07 08:56:17;;;;;;;7.13;3.10;;;16.00;85.10;;;;;;5073772;28;20424;-72
2021/10/07 08:58:42;;;;;;;8.65;2.67;;;16.00;85.60;;;;;;5073226;28;20512;-72
2021/10/07 09:01:39;;;;;;;7.57;2.95;;;16.10;85.90;;;;;;5073463;28;20504;-72
2021/10/07 09:04:22;;;;;;;7.38;3.03;;;16.20;85.60;;;;;;5073493;28;20618;-73
2021/10/07 09:06:51;;;;;;;5.85;2.55;;;16.10;84.80;;;;;;5059333;28;20528;-72
2021/10/07 09:09:17;;;;;;;6.90;2.45;;;16.10;85.60;;;;;;5073413;28;20044;-73
2021/10/07 09:12:11;;;;;;;7.50;2.70;;;16.20;86.10;;;;;;5073319;28;20032;-74
2021/10/07 09:14:37;;;;;;;;;;;16.20;85.80;;;;;;5062167;28;20198;-72
2021/10/07 09:17:06;;;;;;;6.78;2.72;;;16.20;84.70;;;;;;5073036;28;19904;-72
2021/10/07 09:19:39;;;;;;;8.35;3.25;;;16.10;85.60;;;;;;5073611;28;20020;-72
2021/10/07 09:22:35;;;;;;;8.63;3.25;;;16.10;85.80;;;;;;5074778;28;20031;-72
2021/10/07 09:25:04;;;;;;;7.35;2.80;;;16.20;86.00;;;;;;5045463;28;20506;-72
2021/10/07 09:27:32;;;;;;;6.93;2.80;;;16.30;86.60;;;;;;5072620;28;20067;-72
2021/10/07 09:30:00;;;;;;;7.72;2.25;;;16.40;86.20;;;;;;5074188;28;20116;-72
2021/10/07 09:32:41;;;;;;;5.45;2.20;;;16.50;85.90;;;;;;5073105;28;20037;-72
2021/10/07 09:35:09;;;;;;;6.93;1.90;;;16.30;85.00;;;;;;5072803;28;20029;-72
2021/10/07 09:37:42;;;;;;;4.13;1.80;;;16.30;86.10;;;;;;5072776;28;20017;-72
2021/10/07 09:40:13;;;;;;;4.97;1.83;;;16.40;86.80;;;;;;5073074;28;20531;-72
2021/10/07 09:42:47;;;;;;;8.15;2.00;;;16.50;86.10;;;;;;5072537;28;20029;-72
2021/10/07 09:45:21;;;;;;;5.80;1.80;;;16.50;85.70;;;;;;5072816;28;20028;-72
2021/10/07 09:47:58;;;;;;;5.32;1.75;;;16.60;86.20;;;;;;5071279;28;20032;-73
2021/10/07 09:50:32;;;;;;;3.65;1.67;;;16.60;86.00;;;;;;5072665;28;20044;-72
2021/10/07 09:52:59;;;;;;;3.90;1.58;;;16.60;86.10;;;;;;5072260;28;20035;-72
2021/10/07 09:55:28;;;;;;;3.42;1.77;;;16.60;85.60;;;;;;5072195;28;20024;-72
2021/10/07 09:58:15;;;;;;;5.40;1.52;;;16.60;85.90;;;;;;5072371;28;20073;-72
2021/10/07 10:00:44;;;;;;;4.38;1.25;;;16.60;86.60;;;;;;5057209;28;20024;-72
2021/10/07 10:03:11;;;;;;;3.47;1.25;;;16.80;86.70;;;;;;5072424;28;20082;-73
2021/10/07 10:05:39;;;;;;;4.28;1.48;;;16.90;86.10;;;;;;5071530;28;20028;-72
2021/10/07 10:08:06;;;;;;;4.07;1.40;;;16.80;85.50;;;;;;5072314;28;20036;-73
2021/10/07 10:10:33;;;;;;;4.45;1.40;;;16.80;86.10;;;;;;5071778;28;20031;-72
2021/10/07 10:12:59;;;;;;;4.95;1.60;;;16.90;86.50;;;;;;5071874;28;20036;-72
2021/10/07 10:15:25;;;;;;;4.20;1.48;;;17.00;86.40;;;;;;5071548;28;20036;-73
2021/10/07 10:17:51;;;;;;;4.28;1.50;;;17.10;86.00;;;;;;5079609;28;20020;-72
2021/10/07 10:20:24;;;;;;;3.22;1.40;;;17.10;85.80;;;;;;5073571;28;20035;-72
2021/10/07 10:23:18;;;;;;;3.17;1.73;;;17.00;85.30;;;;;;5074731;28;20130;-73
2021/10/07 10:25:53;;;;;;;3.63;1.65;;;17.00;85.50;;;;;;5077420;28;20115;-73
2021/10/07 10:28:40;;;;;;;3.63;1.70;;;17.10;85.70;;;;;;5076828;28;20054;-73
2021/10/07 10:31:09;;;;;;;5.88;1.50;;;17.10;86.00;;;;;;5071500;28;20025;-72
2021/10/07 10:33:37;;;;;;;4.97;1.63;;;17.20;85.90;;;;;;5056101;28;20024;-71
2021/10/07 10:36:25;;;;;;;4.55;1.50;;;17.20;85.30;;;;;;5067619;28;20082;-72
2021/10/07 10:39:05;;;;;;;2.90;1.33;;;17.00;85.20;;;;;;5073191;28;20040;-72
2021/10/07 10:42:06;;;;;;;3.55;1.23;;;17.10;86.20;;;;;;5074134;28;20068;-72
2021/10/07 10:44:46;;;;;;;4.68;1.45;;;17.20;85.60;;;;;;5058279;28;20028;-72
2021/10/07 10:47:11;;;;;;;3.85;1.50;;;17.20;85.40;;;;;;5081585;28;20036;-73
2021/10/07 10:49:54;;;;;;;4.95;1.50;;;17.20;85.60;;;;;;5074462;28;20508;-73
2021/10/07 10:52:22;;;;;;;4.75;1.38;;;17.20;85.40;;;;;;5071317;28;20028;-73
2021/10/07 10:54:51;;;;;;;5.57;1.80;;;17.30;86.10;;;;;;5070819;28;20078;-73
2021/10/07 10:57:33;;;;;;;2.60;1.23;;;17.40;86.10;;;;;;5071478;28;20039;-72
2021/10/07 11:00:06;;;;;;;3.40;1.50;;;17.40;85.50;;;;;;5071908;28;20103;-73
2021/10/07 11:02:33;;;;;;;6.13;2.13;;;17.50;85.70;;;;;;5073588;28;20116;-73
2021/10/07 11:05:08;;;;;;;3.90;1.08;;;17.60;85.30;;;;;;5075714;28;20051;-75
2021/10/07 11:07:37;;;;;;;4.38;1.20;;;17.50;84.50;;;;;;5075995;28;20138;-73
2021/10/07 11:10:06;;;;;;;4.68;1.02;;;17.60;85.30;;;;;;5083421;28;20104;-74
2021/10/07 11:12:50;;;;;;;3.67;1.33;;;17.70;85.50;;;;;;5074898;28;20039;-73
2021/10/07 11:15:17;;;;;;;4.13;1.17;;;17.70;84.70;;;;;;5081682;28;20024;-73
2021/10/07 11:17:45;;;;;;;4.07;1.20;;;17.70;84.70;;;;;;5057799;28;20471;-73
2021/10/07 11:20:30;;;;;;;3.03;1.15;;;17.60;84.20;;;;;;5069233;28;20028;-73
2021/10/07 11:23:08;;;;;;;5.32;1.30;;;17.60;84.70;;;;;;5050309;28;20039;-72
2021/10/07 11:25:37;;;;;;;3.10;1.30;;;17.50;84.70;;;;;;5064156;28;20023;-72
2021/10/07 11:28:03;;;;;;;2.58;1.08;;;17.50;84.70;;;;;;5064376;28;20102;-72
2021/10/07 11:30:33;;;;;;;4.82;1.50;;;17.50;85.40;;;;;;5071095;28;20085;-72
2021/10/07 11:33:00;;;;;;;3.95;1.10;;;17.60;85.80;;;;;;5071322;28;20031;-72
2021/10/07 11:35:26;;;;;;;4.32;1.30;;;17.60;85.30;;;;;;5072500;28;20493;-72
2021/10/07 11:37:51;;;;;;;3.20;1.10;;;17.60;85.20;;;;;;5077151;28;20033;-73
2021/10/07 11:40:31;;;;;;;4.05;1.10;;;17.60;85.20;;;;;;5079049;28;20039;-72
2021/10/07 11:43:03;;;;;;;3.28;0.90;;;17.60;85.00;;;;;;5053341;28;20036;-72
2021/10/07 11:45:34;;;;;;;3.42;1.17;;;17.70;85.70;;;;;;4965556;28;20271;-76
2021/10/07 11:48:07;;;;;;;4.63;1.25;;;17.70;85.70;;;;;;5006048;28;20500;-72
2021/10/07 11:50:36;;;;;;;3.83;1.20;;;17.80;85.50;;;;;;4997104;28;20032;-73
2021/10/07 11:53:01;;;;;;;3.28;1.25;;;17.90;84.70;;;;;;5026364;28;20820;-72
2021/10/07 11:55:27;;;;;;;5.40;1.58;;;17.90;84.80;;;;;;5070399;28;20096;-72
2021/10/07 11:57:58;;;;;;;3.80;1.20;;;18.00;84.70;;;;;;5074426;28;20090;-72
2021/10/07 12:00:44;;;;;;;4.38;1.45;;;18.00;84.30;;;;;;5046019;28;20111;-72
2021/10/07 12:03:17;;;;;;;4.38;1.67;;;18.00;84.50;;;;;;5008692;28;20028;-72
2021/10/07 12:05:46;;;;;;;3.40;1.20;;;18.10;84.50;;;;;;5012637;28;20176;-72
2021/10/07 12:08:15;;;;;;;2.13;1.30;;;18.10;84.50;;;;;;5003276;28;20190;-72
2021/10/07 12:10:43;;;;;;;1.75;1.00;;;18.30;85.30;;;;;;5056018;28;20559;-73
2021/10/07 12:13:16;;;;;;;3.50;1.63;;;18.40;84.40;;;;;;5080824;28;20053;-72
2021/10/07 12:15:47;;;;;;;2.93;1.10;;;18.50;83.70;;;;;;5074368;28;20017;-72
2021/10/07 12:18:13;;;;;;;2.50;1.20;;;18.50;84.40;;;;;;5075200;28;20031;-72
2021/10/07 12:20:39;;;;;;;2.70;1.05;;;18.70;84.00;;;;;;5070776;28;20036;-72
2021/10/07 12:23:06;;;;;;;3.83;1.00;;;18.70;82.90;;;;;;5078446;28;20027;-72
2021/10/07 12:25:40;;;;;;;2.42;0.80;;;18.70;82.90;;;;;;5080741;28;20082;-72
2021/10/07 12:28:06;;;;;;;3.10;1.15;;;18.80;82.90;;;;;;5079167;28;20053;-72
2021/10/07 12:30:32;;;;;;;2.75;1.27;;;18.90;82.90;;;;;;5083320;28;20040;-72
2021/10/07 12:33:11;;;;;;;4.70;1.30;;;19.00;82.80;;;;;;5076988;28;20492;-72
2021/10/07 12:35:37;;;;;;;3.40;1.23;;;19.40;82.40;;;;;;5081128;28;20381;-72
2021/10/07 12:38:03;;;;;;;1.35;1.00;;;19.50;81.80;;;;;;5077176;28;20028;-72
2021/10/07 12:40:29;;;;;;;2.20;1.20;;;19.50;81.00;;;;;;5077406;28;20043;-73
2021/10/07 12:42:54;;;;;;;1.90;1.10;;;19.60;80.90;;;;;;5085983;28;20016;-72
2021/10/07 12:45:20;;;;;;;4.40;2.95;;;19.50;80.60;;;;;;5077539;28;20373;-73
2021/10/07 12:47:59;;;;;;;3.60;2.50;;;19.60;81.30;;;;;;5083460;28;20484;-72
2021/10/07 12:50:24;;;;;;;2.85;1.00;;;19.70;80.60;;;;;;5073577;28;20028;-72
2021/10/07 12:52:57;;;;;;;1.42;1.10;;;19.60;78.60;;;;;;5079493;28;20485;-72
2021/10/07 12:55:26;;;;;;;2.85;0.88;;;20.00;84.00;;;;;;5082546;28;20477;-73
2021/10/07 12:57:53;;;;;;;1.40;0.60;;;20.40;78.20;;;;;;5077135;28;20028;-73
2021/10/07 13:00:35;;;;;;;2.60;0.88;;;20.30;79.10;;;;;;5085715;28;20031;-73